createdAt,value
2022-11-01T00:02:26.841Z,80.30
2022-11-01T00:04:53.588Z,68.72
2022-11-01T00:07:20.333Z,83.22
2022-11-01T00:09:47.028Z,78.47
2022-11-01T00:12:16.786Z,78.30
2022-11-01T00:14:43.463Z,78.35
2022-11-01T00:17:10.435Z,80.22
2022-11-01T00:19:37.202Z,79.18
2022-11-01T00:22:04.100Z,84.38
2022-11-01T00:24:31.593Z,89.57
2022-11-01T00:26:59.775Z,73.32
2022-11-01T00:29:26.845Z,77.70
2022-11-01T00:31:56.591Z,89.88
2022-11-01T00:34:23.695Z,71.78
2022-11-01T00:36:50.471Z,71.00
2022-11-01T00:39:17.237Z,81.95
2022-11-01T00:41:43.989Z,75.50
2022-11-01T00:44:10.817Z,70.00
2022-11-01T00:46:37.485Z,74.82
2022-11-01T00:49:04.248Z,70.35
2022-11-01T00:51:33.498Z,70.57
2022-11-01T00:54:00.188Z,77.93
2022-11-01T00:56:27.001Z,68.00
2022-11-01T00:58:53.844Z,64.88
2022-11-01T01:01:20.626Z,74.82
2022-11-01T01:03:50.140Z,76.00
2022-11-01T01:06:16.837Z,64.28
2022-11-01T01:08:43.627Z,73.75
2022-11-01T01:11:10.361Z,66.57
2022-11-01T01:13:39.543Z,64.43
2022-11-01T01:16:12.864Z,62.78
2022-11-01T01:18:40.229Z,67.40
2022-11-01T01:21:07.454Z,66.45
2022-11-01T01:23:35.450Z,65.45
2022-11-01T01:26:11.135Z,68.75
2022-11-01T01:28:43.500Z,70.55
2022-11-01T01:31:16.503Z,67.07
2022-11-01T01:33:43.355Z,67.95
2022-11-01T01:36:11.029Z,74.63
2022-11-01T01:38:37.985Z,74.13
2022-11-01T01:41:24.551Z,68.40
2022-11-01T01:43:53.523Z,71.47
2022-11-01T01:46:20.642Z,67.22
2022-11-01T01:48:58.542Z,64.68
2022-11-01T01:51:29.421Z,68.75
2022-11-01T01:53:58.829Z,71.18
2022-11-01T01:56:44.116Z,70.03
2022-11-01T01:59:11.266Z,68.68
2022-11-01T02:01:41.449Z,70.35
2022-11-01T02:04:31.669Z,65.15
2022-11-01T02:07:01.029Z,73.15
2022-11-01T02:09:29.499Z,67.47
2022-11-01T02:11:58.647Z,65.30
2022-11-01T02:14:26.930Z,66.68
2022-11-01T02:17:15.119Z,71.03
2022-11-01T02:20:43.328Z,68.03
2022-11-01T02:23:40.684Z,72.90
2022-11-01T02:26:36.927Z,68.93
2022-11-01T02:29:43.337Z,69.07
2022-11-01T02:32:39.385Z,65.85
2022-11-01T02:36:01.652Z,67.00
2022-11-01T02:38:51.379Z,64.75
2022-11-01T02:41:34.775Z,68.82
2022-11-01T02:44:19.255Z,67.20
2022-11-01T02:49:37.912Z,66.28
2022-11-01T02:52:11.240Z,65.40
2022-11-01T02:54:52.616Z,66.40
2022-11-01T02:57:38.485Z,72.20
2022-11-01T03:00:37.862Z,66.18
2022-11-01T03:03:22.586Z,70.72
2022-11-01T03:06:00.895Z,73.65
2022-11-01T03:08:46.832Z,69.22
2022-11-01T03:11:26.142Z,69.45
2022-11-01T03:14:35.884Z,64.03
2022-11-01T03:17:23.140Z,68.47
2022-11-01T03:20:04.688Z,69.07
2022-11-01T03:22:46.711Z,65.70
2022-11-01T03:25:41.725Z,71.38
2022-11-01T03:28:39.197Z,63.00
2022-11-01T03:31:24.574Z,70.78
2022-11-01T03:34:03.009Z,62.30
2022-11-01T03:36:40.138Z,63.28
2022-11-01T03:39:25.091Z,62.60
2022-11-01T03:42:05.839Z,63.75
2022-11-01T03:44:42.948Z,67.80
2022-11-01T03:47:11.705Z,59.35
2022-11-01T03:49:38.426Z,74.60
2022-11-01T03:52:05.559Z,66.75
2022-11-01T03:54:35.076Z,62.05
2022-11-01T03:57:02.127Z,62.70
2022-11-01T03:59:29.180Z,56.72
2022-11-01T04:01:56.329Z,62.97
2022-11-01T04:04:23.318Z,60.67
2022-11-01T04:06:51.544Z,59.85
2022-11-01T04:09:18.204Z,59.20
2022-11-01T04:11:44.927Z,59.38
2022-11-01T04:14:30.380Z,56.42
2022-11-01T04:17:15.819Z,58.45
2022-11-01T04:20:01.272Z,61.08
2022-11-01T04:22:28.052Z,60.97
2022-11-01T04:24:54.704Z,58.42
2022-11-01T04:27:21.865Z,61.17
2022-11-01T04:29:48.672Z,53.78
2022-11-01T04:32:15.436Z,55.78
2022-11-01T04:34:42.225Z,55.85
2022-11-01T04:37:10.584Z,59.33
2022-11-01T04:39:37.850Z,59.70
2022-11-01T04:42:05.466Z,58.25
2022-11-01T04:44:35.027Z,53.40
2022-11-01T04:47:02.687Z,51.42
2022-11-01T04:49:31.824Z,60.50
2022-11-01T04:51:58.668Z,59.53
2022-11-01T04:54:33.053Z,55.78
2022-11-01T04:57:00.666Z,58.83
2022-11-01T04:59:27.391Z,49.40
2022-11-01T05:01:54.285Z,50.75
2022-11-01T05:04:21.006Z,64.28
2022-11-01T05:06:47.737Z,56.53
2022-11-01T05:09:14.561Z,53.15
2022-11-01T05:11:41.593Z,57.97
2022-11-01T05:14:08.912Z,56.58
2022-11-01T05:16:35.831Z,62.17
2022-11-01T05:19:05.030Z,59.38
2022-11-01T05:21:32.218Z,53.17
2022-11-01T05:23:58.960Z,59.65
2022-11-01T05:26:27.727Z,56.78
2022-11-01T05:28:54.514Z,57.50
2022-11-01T05:31:24.300Z,57.28
2022-11-01T05:33:51.015Z,54.22
2022-11-01T05:36:17.730Z,57.95
2022-11-01T05:57:33.547Z,56.63
2022-11-01T06:10:48.572Z,56.70
2022-11-01T06:13:19.394Z,54.63
2022-11-01T06:45:17.681Z,57.60
2022-11-01T07:25:36.392Z,57.63
2022-11-01T08:24:44.731Z,43.55
2022-11-01T08:27:11.467Z,42.35
2022-11-01T08:37:56.904Z,37.05
2022-11-01T08:40:23.732Z,38.08
2022-11-01T08:59:05.586Z,36.30
2022-11-01T09:01:35.716Z,32.22
2022-11-01T09:14:53.993Z,27.45
2022-11-01T09:38:49.431Z,25.00
2022-11-01T09:41:38.851Z,23.45
2022-11-01T09:53:16.896Z,20.70
2022-11-01T09:55:55.273Z,18.42
2022-11-01T09:59:05.698Z,17.48
2022-11-01T10:02:34.666Z,16.05
2022-11-01T10:05:52.390Z,18.83
2022-11-01T10:09:01.676Z,18.58
2022-11-01T10:12:16.278Z,13.48
2022-11-01T10:15:16.882Z,12.75
2022-11-01T10:17:54.647Z,12.68
2022-11-01T10:20:38.976Z,13.63
2022-11-01T10:23:06.553Z,11.32
2022-11-01T10:25:39.609Z,10.10
2022-11-01T10:28:51.782Z,10.25
2022-11-01T10:31:26.224Z,12.85
2022-11-01T10:34:15.007Z,11.63
2022-11-01T10:36:45.026Z,11.35
2022-11-01T10:39:53.976Z,9.25
2022-11-01T10:42:21.099Z,9.20
2022-11-01T10:45:00.817Z,8.60
2022-11-01T10:47:31.700Z,7.82
2022-11-01T10:50:23.686Z,8.10
2022-11-01T10:53:01.405Z,6.80
2022-11-01T10:55:47.022Z,6.45
2022-11-01T10:58:42.638Z,4.88
2022-11-01T11:01:19.872Z,5.95
2022-11-01T11:03:50.163Z,9.43
2022-11-01T11:06:17.392Z,5.07
2022-11-01T11:08:51.164Z,5.30
2022-11-01T11:11:42.483Z,6.25
2022-11-01T11:14:14.397Z,6.15
2022-11-01T11:16:52.866Z,4.45
2022-11-01T11:53:22.176Z,2.78
2022-11-01T11:56:06.754Z,2.55
2022-11-01T11:58:50.284Z,5.63
2022-11-01T12:01:26.743Z,5.00
2022-11-01T12:04:13.912Z,4.30
2022-11-01T12:06:46.460Z,3.13
2022-11-01T12:09:48.084Z,2.63
2022-11-01T12:12:40.668Z,4.95
2022-11-01T12:15:41.407Z,3.95
2022-11-01T12:18:26.204Z,5.88
2022-11-01T12:20:53.206Z,6.20
2022-11-01T12:23:40.501Z,4.25
2022-11-01T12:26:16.808Z,6.15
2022-11-01T12:28:58.629Z,6.55
2022-11-01T12:31:31.192Z,5.45
2022-11-01T12:34:24.449Z,3.28
2022-11-01T12:37:04.185Z,4.10
2022-11-01T12:39:55.633Z,4.72
2022-11-01T12:42:40.438Z,5.38
2022-11-01T12:45:34.354Z,5.78
2022-11-01T12:48:15.595Z,4.40
2022-11-01T12:50:54.062Z,7.43
2022-11-01T12:53:41.593Z,7.93
2022-11-01T12:56:08.463Z,12.20
2022-11-01T12:58:36.395Z,6.90
2022-11-01T13:01:55.333Z,4.65
2022-11-01T13:04:34.144Z,4.22
2022-11-01T13:07:45.018Z,6.55
2022-11-01T13:10:38.268Z,6.55
2022-11-01T13:13:25.136Z,7.32
2022-11-01T13:16:25.738Z,6.53
2022-11-01T13:18:58.805Z,6.60
2022-11-01T13:22:02.698Z,5.82
2022-11-01T13:24:56.674Z,7.55
2022-11-01T13:27:33.460Z,8.70
2022-11-01T13:30:13.714Z,4.35
2022-11-01T13:33:11.273Z,6.93
2022-11-01T13:36:11.282Z,7.53
2022-11-01T13:39:06.509Z,7.47
2022-11-01T13:42:06.363Z,12.70
2022-11-01T13:57:27.279Z,8.35
2022-11-01T14:00:06.851Z,12.27
2022-11-01T14:42:23.160Z,10.10
2022-11-01T14:53:39.208Z,14.10
2022-11-01T14:56:22.195Z,8.02
2022-11-01T15:16:02.821Z,5.65
2022-11-01T15:29:36.370Z,9.65
2022-11-01T16:27:06.242Z,6.93
2022-11-01T16:29:48.416Z,8.00
2022-11-01T16:32:34.205Z,5.60
2022-11-01T17:01:34.181Z,6.00
2022-11-01T17:36:53.726Z,11.10
2022-11-01T17:39:24.368Z,7.43
2022-11-01T17:41:54.842Z,8.02
2022-11-01T17:44:21.785Z,7.20
2022-11-01T17:46:48.732Z,6.80
2022-11-01T17:49:16.917Z,12.77
2022-11-01T17:51:44.325Z,11.02
2022-11-01T17:54:11.080Z,15.32
2022-11-01T17:56:37.968Z,8.52
2022-11-01T17:59:04.886Z,5.78
2022-11-01T18:01:32.800Z,6.90
2022-11-01T18:03:59.465Z,9.10
2022-11-01T18:06:26.514Z,5.30
2022-11-01T18:08:53.993Z,8.18
2022-11-01T18:11:51.587Z,8.18
2022-11-01T18:24:52.264Z,9.25
2022-11-01T19:28:33.167Z,11.30
2022-11-01T19:42:33.895Z,11.70
2022-11-01T19:56:29.748Z,5.32
2022-11-01T19:59:00.542Z,9.77
2022-11-01T20:34:27.522Z,10.88
2022-11-01T20:37:22.801Z,7.95
2022-11-01T20:55:49.468Z,7.70
2022-11-01T21:20:00.208Z,10.02
2022-11-01T21:22:29.018Z,7.65
2022-11-01T21:24:58.235Z,7.78
2022-11-01T21:27:34.237Z,9.48
2022-11-01T21:30:21.939Z,8.02
2022-11-01T21:32:48.655Z,6.22
2022-11-01T21:35:38.163Z,6.35
2022-11-01T21:38:35.785Z,8.07
2022-11-01T21:41:26.344Z,6.95
2022-11-01T21:43:53.138Z,11.70
2022-11-01T21:46:31.339Z,7.05
2022-11-01T21:48:59.787Z,8.15
2022-11-01T21:51:26.616Z,9.57
2022-11-01T21:53:53.299Z,5.70
2022-11-01T21:56:19.957Z,9.40
2022-11-01T21:58:46.572Z,5.72
2022-11-01T22:01:16.397Z,6.72
2022-11-01T22:03:42.994Z,8.32
2022-11-01T22:06:09.604Z,5.85
2022-11-01T22:08:36.185Z,8.52
2022-11-01T22:11:02.999Z,5.32
2022-11-01T22:13:29.628Z,6.13
2022-11-01T22:15:56.248Z,11.32
2022-11-01T22:18:25.328Z,6.05
2022-11-01T22:20:52.162Z,9.95
2022-11-01T22:23:19.802Z,9.50
2022-11-01T22:25:46.427Z,4.68
2022-11-01T22:28:13.096Z,9.60
2022-11-01T22:30:42.706Z,6.07
2022-11-01T22:33:11.083Z,10.57
2022-11-01T22:35:37.804Z,9.75
2022-11-01T22:38:20.698Z,6.80
2022-11-01T22:41:01.387Z,9.48
2022-11-01T22:43:30.665Z,8.55
2022-11-01T22:45:57.446Z,7.28
2022-11-01T22:48:25.192Z,10.02
2022-11-01T22:50:51.811Z,7.00
2022-11-01T22:53:25.636Z,5.88
2022-11-01T22:55:55.444Z,8.50
2022-11-01T22:58:37.602Z,13.82
2022-11-01T23:01:25.915Z,7.90
2022-11-01T23:03:59.004Z,7.30
2022-11-01T23:06:33.281Z,16.73
2022-11-01T23:12:14.641Z,4.53
2022-11-01T23:14:45.581Z,8.02
2022-11-01T23:17:35.050Z,12.90
2022-11-01T23:20:03.611Z,8.52
2022-11-01T23:22:36.031Z,10.57
2022-11-01T23:25:05.191Z,6.78
2022-11-01T23:27:32.757Z,5.82
2022-11-01T23:30:02.590Z,11.15
2022-11-01T23:32:31.390Z,10.23
2022-11-01T23:35:24.257Z,7.13
2022-11-01T23:37:53.605Z,4.75
2022-11-01T23:40:22.197Z,13.07
2022-11-01T23:42:49.506Z,9.48
2022-11-01T23:45:33.291Z,6.10
2022-11-01T23:48:01.479Z,6.53
2022-11-01T23:50:37.233Z,7.15
2022-11-01T23:53:13.531Z,9.82
2022-11-01T23:55:48.168Z,4.90
2022-11-01T23:58:35.147Z,7.40
